Terminal Aerodrome Forecast
Issued by NWS Melbourne, FL

Home | Current Version | Previous Version | Text Only | Print | Product List | Glossary On
Versions: 1 2 3 4 5 6 7 8 9 10 11 12 13 14 15 16
000
FTUS42 KMLB 271700
TAFMLB
TAF
KMLB 271722Z 2718/2818 11006KT P6SM SCT025 BKN120
     FM280200 09004KT P6SM BKN020 OVC040
      TEMPO 2803/2806 5SM BR BKN012 OVC025
     FM280600 VRB03KT 5SM BR OVC010=

USA.gov is the U.S. government's official web portal to all federal, state and local government web resources and services.